Time;durP1;ratioP1;P1;durP2;ratioP2;P2;SDS_P1;SDS_P2;PMS_P1;PMS_P2;Temp;Humidity;BMP_temperature;BMP_pressure;BME280_temperature;BME280_humidity;BME280_pressure;Samples;Min_cycle;Max_cycle;Signal;HPM_P1;HPM_P2
2023/12/29 00:00:36;;;;;;;4.05;3.85;;;;;;;9.74;97.88;99989.28;6048377;23;20565;-71
2023/12/29 00:03:03;;;;;;;4.28;4.07;;;;;;;9.90;98.85;100034.63;6053860;23;20450;-71
2023/12/29 00:05:30;;;;;;;15.82;4.32;;;;;;;9.90;98.69;100034.63;6054315;23;20504;-70
2023/12/29 00:07:57;;;;;;;5.10;4.38;;;;;;;9.70;98.88;99998.25;6050379;23;20444;-70
2023/12/29 00:10:23;;;;;;;4.20;3.90;;;;;;;9.74;98.70;100018.97;6051491;23;20018;-72
2023/12/29 00:12:50;;;;;;;5.20;4.90;;;;;;;9.98;96.75;100000.06;6052244;23;20569;-70
2023/12/29 00:15:19;;;;;;;9.02;4.50;;;;;;;10.13;95.76;99990.44;6054358;23;20022;-71
2023/12/29 00:17:46;;;;;;;4.68;4.22;;;;;;;10.06;96.19;99982.09;6056447;23;20037;-71
2023/12/29 00:20:13;;;;;;;4.50;4.10;;;;;;;10.02;96.94;99982.38;6051402;23;20030;-72
2023/12/29 00:22:47;;;;;;;5.47;5.18;;;;;;;9.90;97.07;99942.88;6016390;23;20042;-72
2023/12/29 00:25:13;;;;;;;4.15;3.85;;;;;;;9.85;97.68;99972.94;6029211;23;20021;-71
2023/12/29 00:27:40;;;;;;;4.65;3.90;;;;;;;9.84;96.73;99951.09;6026135;23;20011;-71
2023/12/29 00:30:08;;;;;;;4.00;3.80;;;;;;;10.04;97.34;100001.47;6053742;23;20018;-71
2023/12/29 00:32:35;;;;;;;3.80;3.60;;;;;;;10.03;97.26;99999.81;6056920;23;20416;-70
2023/12/29 00:35:02;;;;;;;4.47;4.20;;;;;;;9.75;96.07;99928.94;6006068;23;20039;-71
2023/12/29 00:37:28;;;;;;;4.13;3.92;;;;;;;9.66;96.77;99923.41;6058842;23;20038;-71
2023/12/29 00:39:55;;;;;;;7.30;4.78;;;;;;;10.07;96.43;99988.19;6054172;23;20182;-70
2023/12/29 00:42:21;;;;;;;4.15;3.95;;;;;;;9.69;96.97;99933.72;6052726;23;20026;-70
2023/12/29 00:44:48;;;;;;;5.30;5.00;;;;;;;9.75;96.83;99928.09;6048925;23;21113;-71
2023/12/29 00:47:14;;;;;;;4.25;4.05;;;;;;;9.98;95.76;99945.88;6050245;23;20018;-72
2023/12/29 00:49:41;;;;;;;4.53;4.22;;;;;;;9.82;95.65;99918.91;6054802;23;20490;-71
2023/12/29 00:52:08;;;;;;;4.72;4.35;;;;;;;10.22;95.16;99973.28;6054215;23;20034;-71
2023/12/29 00:54:34;;;;;;;4.00;3.80;;;;;;;10.11;96.37;99968.72;6050796;23;20022;-71
2023/12/29 00:57:01;;;;;;;3.90;3.70;;;;;;;10.13;96.05;99975.53;6022260;23;20134;-70
2023/12/29 00:59:27;;;;;;;3.75;3.60;;;;;;;10.02;95.89;99964.03;6039051;23;20068;-71
2023/12/29 01:01:54;;;;;;;4.25;3.95;;;;;;;9.79;96.57;99925.19;6024450;23;20110;-70
2023/12/29 01:04:20;;;;;;;4.00;3.80;;;;;;;9.63;96.64;99906.09;6054273;23;20182;-71
2023/12/29 01:06:47;;;;;;;5.03;4.82;;;;;;;10.03;97.19;99990.16;6048708;23;20496;-71
2023/12/29 01:09:14;;;;;;;4.07;3.88;;;;;;;9.81;97.87;99967.03;6033951;23;20497;-71
2023/12/29 01:11:40;;;;;;;3.90;3.78;;;;;;;10.02;98.49;99992.84;6002989;23;20089;-72
2023/12/29 01:14:07;;;;;;;3.95;3.75;;;;;;;9.93;98.39;99966.28;6022091;23;20275;-70
2023/12/29 01:16:33;;;;;;;4.03;3.83;;;;;;;9.84;98.26;99939.78;6022308;23;20262;-71
2023/12/29 01:19:00;;;;;;;4.82;4.20;;;;;;;9.45;98.35;99894.97;6000499;23;20179;-72
2023/12/29 01:21:27;;;;;;;4.05;3.85;;;;;;;9.96;99.22;99987.06;6039967;23;20453;-71
2023/12/29 01:23:53;;;;;;;4.88;4.47;;;;;;;9.96;99.00;99983.59;6037863;23;20034;-71
2023/12/29 01:26:20;;;;;;;10.05;4.00;;;;;;;9.90;99.59;99978.72;6023366;23;20015;-73
2023/12/29 01:28:46;;;;;;;5.38;5.07;;;;;;;9.97;99.77;100007.09;6022858;23;20021;-71
2023/12/29 01:31:13;;;;;;;4.40;4.00;;;;;;;9.73;99.27;99950.94;6001398;23;20023;-70
2023/12/29 01:33:40;;;;;;;4.18;3.97;;;;;;;9.81;98.85;99942.59;6023255;23;20030;-70
2023/12/29 01:36:06;;;;;;;5.00;4.43;;;;;;;10.00;99.17;99990.31;6019782;23;20030;-70
2023/12/29 01:38:43;;;;;;;5.22;4.78;;;;;;;9.85;99.82;99980.78;6020253;23;20093;-70
2023/12/29 01:41:09;;;;;;;4.50;4.20;;;;;;;9.98;100.00;100000.94;6021499;23;20101;-70
2023/12/29 01:43:36;;;;;;;3.90;3.70;;;;;;;10.05;100.00;100013.66;5996510;23;20034;-71
2023/12/29 01:46:02;;;;;;;4.07;3.88;;;;;;;10.04;100.00;100010.16;6024751;23;20030;-71
2023/12/29 01:48:29;;;;;;;4.30;4.00;;;;;;;9.99;100.00;100005.22;6027526;23;20500;-72
2023/12/29 01:50:57;;;;;;;5.45;5.15;;;;;;;9.59;100.00;99944.75;6023112;23;20240;-70
2023/12/29 01:53:24;;;;;;;12.50;4.28;;;;;;;9.61;100.00;99949.06;6014420;23;20022;-71
2023/12/29 01:56:05;;;;;;;4.07;3.88;;;;;;;9.59;100.00;99970.94;6022835;23;20663;-71
2023/12/29 01:58:32;;;;;;;4.00;3.80;;;;;;;9.84;100.00;100013.16;5998194;23;20094;-71
2023/12/29 02:01:00;;;;;;;4.30;4.10;;;;;;;9.84;100.00;100032.34;6018800;23;20441;-71
2023/12/29 02:03:27;;;;;;;3.90;3.70;;;;;;;9.66;100.00;99988.91;6026701;23;20087;-71
2023/12/29 02:05:55;;;;;;;4.40;4.10;;;;;;;9.86;100.00;100011.28;6004664;23;20023;-71
2023/12/29 02:08:22;;;;;;;11.85;4.40;;;;;;;9.81;100.00;99980.13;6023850;23;20038;-70
2023/12/29 02:10:49;;;;;;;6.50;6.00;;;;;;;9.85;100.00;100007.84;6042513;23;20030;-71
2023/12/29 02:13:15;;;;;;;4.20;4.00;;;;;;;9.66;100.00;99974.06;6053105;23;20017;-71
2023/12/29 02:15:42;;;;;;;4.22;3.92;;;;;;;9.76;100.00;99993.53;6051135;23;20030;-71
2023/12/29 02:18:15;;;;;;;4.40;4.10;;;;;;;9.96;100.00;99997.56;6027553;23;20030;-72
2023/12/29 02:20:44;;;;;;;4.65;4.45;;;;;;;9.89;100.00;100017.19;6054277;23;20010;-70
2023/12/29 02:23:10;;;;;;;4.05;3.85;;;;;;;9.43;100.00;99962.31;6028970;23;20018;-70
2023/12/29 02:25:37;;;;;;;4.03;3.83;;;;;;;9.77;100.00;100041.53;6057763;23;20026;-71
2023/12/29 02:28:25;;;;;;;8.07;4.03;;;;;;;9.92;100.00;100079.06;6056651;23;20030;-70
2023/12/29 02:31:09;;;;;;;5.55;5.10;;;;;;;8.66;100.00;99888.28;6028582;23;20037;-70
2023/12/29 02:33:39;;;;;;;3.97;3.78;;;;;;;9.38;100.00;100022.81;6056779;23;20342;-71
2023/12/29 02:36:07;;;;;;;4.00;3.80;;;;;;;9.79;100.00;100099.94;6012591;23;20344;-73
2023/12/29 02:38:34;;;;;;;4.25;4.00;;;;;;;9.59;100.00;100078.34;6050759;23;20030;-72
2023/12/29 02:41:00;;;;;;;4.57;4.28;;;;;;;9.33;100.00;100040.56;6050032;23;20014;-72
2023/12/29 02:43:27;;;;;;;5.10;4.30;;;;;;;9.74;100.00;100094.97;6057090;23;20047;-72
2023/12/29 02:45:53;;;;;;;4.07;3.88;;;;;;;9.70;100.00;100089.97;6051807;23;20003;-72
2023/12/29 02:48:20;;;;;;;4.20;4.00;;;;;;;9.61;100.00;100104.47;6052883;23;20030;-72
2023/12/29 02:50:49;;;;;;;5.10;4.80;;;;;;;9.68;100.00;100078.72;6042818;23;20232;-71
2023/12/29 02:53:16;;;;;;;4.57;4.00;;;;;;;9.49;100.00;100052.78;6059350;23;20018;-71
2023/12/29 02:55:42;;;;;;;6.78;3.63;;;;;;;9.64;100.00;100051.91;6027265;23;20016;-72
2023/12/29 02:58:09;;;;;;;4.13;3.92;;;;;;;9.65;100.00;100060.59;6029599;23;20624;-71
2023/12/29 03:00:35;;;;;;;4.18;3.88;;;;;;;9.59;100.00;100065.25;6054199;23;20082;-72
2023/12/29 03:03:02;;;;;;;4.10;3.90;;;;;;;9.69;100.00;100054.22;6030668;23;20002;-72
2023/12/29 03:05:29;;;;;;;3.72;3.50;;;;;;;9.44;100.00;100031.22;6053654;23;20474;-71
2023/12/29 03:07:57;;;;;;;14.00;13.30;;;;;;;8.48;100.00;99840.47;6020367;23;20400;-71
2023/12/29 03:10:24;;;;;;;5.60;4.05;;;;;;;9.63;100.00;100029.22;5943541;23;20486;-71
2023/12/29 03:12:51;;;;;;;5.45;5.03;;;;;;;9.24;100.00;99985.25;6020239;23;20089;-71
2023/12/29 03:15:17;;;;;;;3.60;3.50;;;;;;;9.13;100.00;99978.88;6028519;23;20027;-69
2023/12/29 03:17:44;;;;;;;4.03;3.78;;;;;;;9.18;100.00;99992.56;6012869;23;20138;-70
2023/12/29 03:20:11;;;;;;;9.43;3.90;;;;;;;9.55;100.00;100055.88;6026242;23;20062;-72
2023/12/29 03:22:37;;;;;;;3.65;3.55;;;;;;;8.28;100.00;99852.03;6027100;23;20637;-71
2023/12/29 03:25:04;;;;;;;4.00;3.80;;;;;;;9.34;100.00;99970.69;6027636;23;20033;-71
2023/12/29 03:27:31;;;;;;;4.15;3.90;;;;;;;9.45;100.00;99978.78;6023913;23;20450;-71
2023/12/29 03:29:58;;;;;;;3.58;3.47;;;;;;;9.40;100.00;99972.94;6026959;23;20027;-70
2023/12/29 03:32:24;;;;;;;8.45;3.80;;;;;;;9.53;100.00;99989.63;6029546;23;20046;-70
2023/12/29 03:34:51;;;;;;;5.30;5.00;;;;;;;9.49;100.00;99990.75;6024633;23;20064;-71
2023/12/29 03:37:18;;;;;;;4.30;4.10;;;;;;;9.62;100.00;99958.59;5999305;23;20034;-72
2023/12/29 03:39:44;;;;;;;4.68;4.38;;;;;;;9.71;100.00;99985.06;6025201;23;20027;-71
2023/12/29 03:42:11;;;;;;;7.70;4.00;;;;;;;9.36;100.00;99913.84;6029375;23;20208;-72
2023/12/29 03:44:37;;;;;;;10.38;4.15;;;;;;;9.44;100.00;99923.84;6026030;23;20026;-70
2023/12/29 03:47:04;;;;;;;4.47;4.28;;;;;;;9.14;100.00;99862.78;6025141;23;20059;-71
2023/12/29 03:49:30;;;;;;;3.65;3.53;;;;;;;9.67;100.00;99957.38;6029037;23;20053;-73
2023/12/29 03:51:57;;;;;;;3.80;3.60;;;;;;;9.63;100.00;99958.50;5997046;23;20331;-70
2023/12/29 03:54:23;;;;;;;4.22;3.92;;;;;;;9.58;100.00;99960.53;6024984;23;20038;-70
2023/12/29 03:56:50;;;;;;;5.75;5.35;;;;;;;9.32;100.00;99907.97;6005711;23;20050;-71
2023/12/29 03:59:16;;;;;;;3.60;3.50;;;;;;;9.63;100.00;99955.88;6019134;23;20124;-72
2023/12/29 04:01:43;;;;;;;4.20;3.90;;;;;;;9.45;100.00;99875.81;6007319;23;20027;-71
2023/12/29 04:04:10;;;;;;;4.72;4.32;;;;;;;9.63;100.00;99871.22;6025063;23;20043;-71
2023/12/29 04:06:37;;;;;;;3.72;3.60;;;;;;;8.67;100.00;99733.00;5990473;23;20119;-70
2023/12/29 04:09:05;;;;;;;4.40;4.20;;;;;;;9.44;100.00;99837.44;6028535;23;20225;-71
2023/12/29 04:11:32;;;;;;;3.78;3.58;;;;;;;9.77;100.00;99910.50;6042064;23;20321;-71
2023/12/29 04:13:58;;;;;;;4.18;3.80;;;;;;;9.37;100.00;99845.66;5989136;23;20031;-71
2023/12/29 04:16:25;;;;;;;3.90;3.60;;;;;;;9.74;100.00;99915.91;6038523;23;20211;-71
2023/12/29 04:18:51;;;;;;;5.45;5.13;;;;;;;9.75;100.00;99931.56;6029966;23;20002;-71
2023/12/29 04:21:18;;;;;;;3.80;3.60;;;;;;;9.83;100.00;99925.84;6022053;23;20175;-69
2023/12/29 04:23:44;;;;;;;3.53;3.42;;;;;;;9.83;100.00;99925.00;6051657;23;20022;-71
2023/12/29 04:26:11;;;;;;;3.80;3.60;;;;;;;9.90;100.00;99923.69;6049773;23;20046;-70
2023/12/29 04:28:37;;;;;;;3.60;3.50;;;;;;;9.59;100.00;99886.28;6048099;23;20055;-70
2023/12/29 04:31:04;;;;;;;5.43;3.80;;;;;;;9.96;100.00;99936.41;6021896;23;20461;-71
2023/12/29 04:33:31;;;;;;;3.80;3.60;;;;;;;9.38;100.00;99838.66;6041349;23;20199;-71
2023/12/29 04:35:57;;;;;;;4.05;3.85;;;;;;;9.57;100.00;99867.19;6054961;23;20222;-70
2023/12/29 04:38:24;;;;;;;4.07;3.70;;;;;;;9.96;100.00;99937.28;6028338;23;20468;-73
2023/12/29 04:40:50;;;;;;;5.97;5.45;;;;;;;9.92;100.00;99942.78;6041837;23;20088;-74
2023/12/29 04:43:17;;;;;;;3.53;3.42;;;;;;;9.79;100.00;99927.81;6047971;23;20313;-71
2023/12/29 04:45:43;;;;;;;4.15;3.95;;;;;;;9.57;100.00;99916.97;6022064;23;20049;-72
2023/12/29 04:48:09;;;;;;;3.95;3.75;;;;;;;9.27;100.00;99898.69;6043023;23;20022;-72
2023/12/29 04:50:36;;;;;;;4.20;4.00;;;;;;;9.67;100.00;99956.53;6029234;23;20185;-71
2023/12/29 04:53:03;;;;;;;3.92;3.72;;;;;;;8.60;100.00;99812.78;6055217;23;20026;-71
2023/12/29 04:55:29;;;;;;;4.30;4.10;;;;;;;9.33;100.00;99917.50;6055822;23;20352;-72
2023/12/29 04:57:56;;;;;;;4.03;3.80;;;;;;;9.65;100.00;99963.66;6028924;23;20050;-72
2023/12/29 05:00:22;;;;;;;3.95;3.72;;;;;;;9.31;100.00;99900.19;6049196;23;20137;-69
2023/12/29 05:02:49;;;;;;;5.28;4.95;;;;;;;9.60;100.00;99966.53;6046492;23;20089;-71
2023/12/29 05:05:15;;;;;;;4.00;3.80;;;;;;;9.54;100.00;99961.66;6054356;23;20162;-70
2023/12/29 05:07:42;;;;;;;4.15;3.80;;;;;;;9.59;100.00;99970.09;6038878;23;20026;-69
2023/12/29 05:10:08;;;;;;;4.13;3.92;;;;;;;9.66;100.00;99986.28;6027222;23;20022;-69
2023/12/29 05:12:35;;;;;;;3.90;3.70;;;;;;;9.18;100.00;99903.53;6040061;23;20474;-70
2023/12/29 05:15:02;;;;;;;3.45;3.35;;;;;;;9.59;100.00;99973.56;6041487;23;20550;-70
2023/12/29 05:17:28;;;;;;;4.30;4.10;;;;;;;9.26;100.00;99902.22;6053282;23;20030;-71
2023/12/29 05:19:55;;;;;;;3.67;3.53;;;;;;;9.62;100.00;99932.38;6057040;23;20453;-71
2023/12/29 05:22:21;;;;;;;3.80;3.60;;;;;;;9.70;100.00;99930.16;6042598;23;20027;-72
2023/12/29 05:24:48;;;;;;;4.93;4.72;;;;;;;9.63;100.00;99923.59;6029706;23;20481;-71
2023/12/29 05:27:14;;;;;;;4.18;3.97;;;;;;;9.56;100.00;99915.25;6050655;23;20014;-71
2023/12/29 05:29:41;;;;;;;3.75;3.65;;;;;;;9.56;100.00;99930.97;6032207;23;20031;-70
2023/12/29 05:32:08;;;;;;;3.40;3.30;;;;;;;9.65;100.00;99913.88;5995284;23;20573;-70
2023/12/29 05:34:35;;;;;;;4.07;3.88;;;;;;;8.96;100.00;99806.28;6055219;23;20034;-71
2023/12/29 05:37:02;;;;;;;3.90;3.70;;;;;;;9.55;100.00;99903.13;6004057;23;20239;-70
2023/12/29 05:39:29;;;;;;;4.05;3.80;;;;;;;8.33;100.00;99732.34;6027430;23;20418;-72
2023/12/29 05:41:55;;;;;;;3.95;3.75;;;;;;;9.28;100.00;99866.31;6031125;23;20406;-70
2023/12/29 05:44:22;;;;;;;4.20;3.92;;;;;;;9.52;100.00;99892.81;6014670;23;20501;-71
2023/12/29 05:46:49;;;;;;;5.22;5.03;;;;;;;9.21;100.00;99838.84;6048503;23;20022;-71
2023/12/29 05:49:15;;;;;;;4.13;3.92;;;;;;;9.43;100.00;99891.59;6045612;23;20038;-73
2023/12/29 05:51:44;;;;;;;5.40;4.22;;;;;;;9.39;100.00;99896.16;6038564;23;20285;-70
2023/12/29 05:54:10;;;;;;;7.57;3.80;;;;;;;9.45;100.00;99874.00;6053669;23;20046;-70
2023/12/29 05:56:37;;;;;;;4.60;4.30;;;;;;;8.91;100.00;99790.03;6030835;23;20018;-70
2023/12/29 05:59:03;;;;;;;3.83;3.70;;;;;;;9.42;100.00;99884.69;6021144;23;20387;-71
2023/12/29 06:01:30;;;;;;;6.10;3.70;;;;;;;9.48;100.00;99886.94;6003291;23;21112;-70
2023/12/29 06:03:57;;;;;;;4.00;3.80;;;;;;;9.33;100.00;99856.44;6042233;23;20274;-72
2023/12/29 06:06:26;;;;;;;4.32;4.10;;;;;;;9.46;100.00;99880.94;6043456;23;20148;-71
2023/12/29 06:08:53;;;;;;;5.15;4.90;;;;;;;9.36;100.00;99878.03;6050496;23;20502;-71
2023/12/29 06:11:20;;;;;;;3.88;3.67;;;;;;;9.36;100.00;99874.56;6056626;23;20018;-71
2023/12/29 06:13:47;;;;;;;3.70;3.60;;;;;;;8.89;100.00;99846.84;6044759;23;20028;-70
2023/12/29 06:16:18;;;;;;;3.85;3.65;;;;;;;9.12;100.00;99901.28;6021021;23;20054;-70
2023/12/29 06:18:44;;;;;;;4.85;4.65;;;;;;;8.99;100.00;99863.69;6054681;23;20092;-72
2023/12/29 06:21:11;;;;;;;3.33;3.22;;;;;;;7.95;100.00;99685.75;6048406;23;20555;-71
2023/12/29 06:23:38;;;;;;;4.30;4.10;;;;;;;9.24;100.00;99920.69;6041530;23;20019;-70
2023/12/29 06:26:04;;;;;;;3.78;3.60;;;;;;;8.99;100.00;99890.69;6052345;23;20014;-71
2023/12/29 06:28:31;;;;;;;4.38;3.90;;;;;;;8.11;100.00;99771.09;6046937;23;20026;-71
2023/12/29 06:30:57;;;;;;;7.65;4.20;;;;;;;9.10;100.00;99958.13;6011199;23;20489;-70
2023/12/29 06:33:24;;;;;;;3.92;3.72;;;;;;;8.93;100.00;99919.00;6049713;23;20169;-72
2023/12/29 06:35:51;;;;;;;3.75;3.60;;;;;;;9.20;100.00;99968.91;6002802;23;20434;-71
2023/12/29 06:38:18;;;;;;;3.85;3.70;;;;;;;8.92;100.00;99930.38;6052566;23;20520;-70
2023/12/29 06:40:44;;;;;;;5.05;4.78;;;;;;;9.25;100.00;99956.38;6033099;23;20509;-70
2023/12/29 06:43:11;;;;;;;3.80;3.60;;;;;;;9.33;100.00;99943.69;6048255;23;20038;-72
2023/12/29 06:45:37;;;;;;;4.32;3.70;;;;;;;9.27;100.00;99948.44;6027376;23;20023;-72
2023/12/29 06:48:04;;;;;;;4.60;4.20;;;;;;;8.75;100.00;99879.88;6050526;23;20102;-71
2023/12/29 06:50:31;;;;;;;4.20;4.00;;;;;;;8.82;100.00;99929.22;6014284;23;20026;-73
2023/12/29 06:52:57;;;;;;;4.50;4.18;;;;;;;9.16;100.00;99996.16;6051522;23;20554;-71
2023/12/29 06:55:25;;;;;;;3.67;3.58;;;;;;;8.95;100.00;99962.44;6053494;23;20034;-71
2023/12/29 06:57:51;;;;;;;4.00;3.78;;;;;;;9.24;100.00;100016.69;6007898;23;20427;-69
2023/12/29 07:00:18;;;;;;;4.35;4.05;;;;;;;9.23;100.00;100012.38;6046275;23;20042;-70
2023/12/29 07:02:45;;;;;;;5.10;4.80;;;;;;;8.92;100.00;99973.13;6029940;23;20043;-71
2023/12/29 07:05:11;;;;;;;4.00;3.70;;;;;;;8.83;100.00;99950.06;6057045;23;20030;-70
2023/12/29 07:07:38;;;;;;;3.92;3.67;;;;;;;9.46;100.00;100018.91;6009028;23;20027;-71
2023/12/29 07:10:06;;;;;;;4.05;3.85;;;;;;;9.35;100.00;99988.94;6048218;23;20030;-71
2023/12/29 07:12:32;;;;;;;3.80;3.67;;;;;;;9.49;100.00;99990.75;6020732;23;20026;-72
2023/12/29 07:14:59;;;;;;;3.92;3.72;;;;;;;9.21;100.00;99927.84;6023695;23;20187;-71
2023/12/29 07:17:25;;;;;;;4.18;3.97;;;;;;;9.22;100.00;99945.25;6046958;23;20036;-71
2023/12/29 07:19:52;;;;;;;3.95;3.75;;;;;;;9.57;100.00;99987.69;6047684;23;20303;-70
2023/12/29 07:22:18;;;;;;;3.72;3.53;;;;;;;9.56;100.00;99975.50;6054337;23;20032;-72
2023/12/29 07:24:45;;;;;;;5.60;4.95;;;;;;;9.53;100.00;99987.03;6035220;23;20026;-72
2023/12/29 07:27:12;;;;;;;3.70;3.60;;;;;;;9.47;100.00;99974.28;6053104;23;20378;-71
2023/12/29 07:29:38;;;;;;;4.15;3.95;;;;;;;9.49;100.00;99977.66;6050954;23;20046;-71
2023/12/29 07:32:05;;;;;;;3.75;3.60;;;;;;;9.53;100.00;99981.78;6040081;23;20116;-71
2023/12/29 07:34:32;;;;;;;3.80;3.60;;;;;;;9.18;100.00;99921.88;6046600;23;20312;-70
2023/12/29 07:36:58;;;;;;;3.60;3.40;;;;;;;9.54;100.00;99983.47;6039784;23;20030;-70
2023/12/29 07:39:25;;;;;;;3.88;3.67;;;;;;;9.53;100.00;99996.66;6035800;23;20034;-71
2023/12/29 07:41:52;;;;;;;4.18;3.97;;;;;;;9.53;100.00;100009.75;6048296;23;20381;-72
2023/12/29 07:44:19;;;;;;;4.32;4.03;;;;;;;9.04;100.00;99924.47;6007976;23;20054;-70
2023/12/29 07:46:46;;;;;;;5.40;5.10;;;;;;;9.64;100.00;100015.22;6000171;23;20470;-70
2023/12/29 07:49:12;;;;;;;3.70;3.50;;;;;;;8.43;100.00;99852.13;6052529;23;20025;-72
2023/12/29 07:51:46;;;;;;;4.25;4.05;;;;;;;9.05;100.00;99980.25;6043810;23;20015;-72
2023/12/29 07:54:13;;;;;;;3.97;3.78;;;;;;;9.56;100.00;100099.50;6044532;23;20042;-74
2023/12/29 07:56:39;;;;;;;4.55;4.35;;;;;;;9.11;100.00;100056.66;6023840;23;20026;-72
2023/12/29 07:59:06;;;;;;;3.78;3.60;;;;;;;9.23;100.00;100131.03;6044441;23;20354;-71
2023/12/29 08:01:32;;;;;;;3.90;3.70;;;;;;;9.27;100.00;100174.44;6056162;23;20033;-71
2023/12/29 08:03:59;;;;;;;3.60;3.47;;;;;;;7.65;100.00;99909.47;6022075;23;20015;-71
2023/12/29 08:06:26;;;;;;;4.65;4.05;;;;;;;9.21;100.00;100200.13;6030638;23;20078;-72
2023/12/29 08:08:54;;;;;;;4.80;4.60;;;;;;;8.65;100.00;100118.53;6050641;23;20018;-71
2023/12/29 08:11:21;;;;;;;3.50;3.40;;;;;;;8.33;100.00;100106.19;6033987;23;20048;-72
2023/12/29 08:13:48;;;;;;;3.70;3.58;;;;;;;8.51;100.00;100145.41;6046887;23;20026;-73
2023/12/29 08:16:17;;;;;;;3.70;3.55;;;;;;;8.84;100.00;100202.09;6039363;23;20090;-71
2023/12/29 08:18:46;;;;;;;5.18;4.85;;;;;;;9.09;100.00;100261.84;6013913;23;20534;-71
2023/12/29 08:21:19;;;;;;;3.90;3.70;;;;;;;9.01;100.00;100259.63;6029522;23;20033;-71
2023/12/29 08:23:47;;;;;;;3.60;3.50;;;;;;;8.99;100.00;100279.81;6020585;23;20577;-71
2023/12/29 08:26:15;;;;;;;3.80;3.50;;;;;;;8.79;100.00;100252.91;6048611;23;20092;-72
2023/12/29 08:28:42;;;;;;;5.15;4.85;;;;;;;8.54;100.00;100224.56;6049825;23;20027;-73
2023/12/29 08:31:09;;;;;;;3.40;3.30;;;;;;;8.14;100.00;100191.72;6055196;23;20046;-73
2023/12/29 08:33:36;;;;;;;3.60;3.50;;;;;;;8.75;100.00;100310.69;6066218;23;20042;-69
2023/12/29 08:36:08;;;;;;;3.90;3.70;;;;;;;8.83;100.00;100313.78;6067769;23;20057;-74
2023/12/29 08:38:35;;;;;;;3.60;3.50;;;;;;;8.67;100.00;100291.94;6070634;23;20030;-73
2023/12/29 08:41:02;;;;;;;4.20;3.80;;;;;;;8.83;100.00;100323.41;6063339;23;20098;-71
2023/12/29 08:43:29;;;;;;;4.97;4.03;;;;;;;8.53;100.00;100284.78;6058442;23;20050;-72
2023/12/29 08:45:58;;;;;;;3.53;3.42;;;;;;;8.76;100.00;100309.78;6054749;23;20011;-70
2023/12/29 08:48:25;;;;;;;3.35;3.25;;;;;;;8.41;100.00;100251.38;6012574;23;20035;-72
2023/12/29 08:50:52;;;;;;;5.72;5.40;;;;;;;8.89;100.00;100336.16;6045527;23;20019;-72
2023/12/29 08:53:20;;;;;;;3.95;3.75;;;;;;;8.12;100.00;100217.94;6048877;23;20303;-72
2023/12/29 08:55:47;;;;;;;3.70;3.50;;;;;;;8.26;100.00;100263.44;6062400;23;20063;-74
2023/12/29 08:58:16;;;;;;;4.00;3.80;;;;;;;8.63;100.00;100330.47;6051896;23;20113;-71
2023/12/29 09:00:43;;;;;;;6.10;5.70;;;;;;;8.04;100.00;100227.03;6041162;23;20109;-70
2023/12/29 09:03:10;;;;;;;3.75;3.55;;;;;;;8.83;100.00;100379.19;6040974;23;20019;-71
2023/12/29 09:05:36;;;;;;;5.10;3.83;;;;;;;8.83;100.00;100373.94;6054560;23;20031;-72
2023/12/29 09:08:03;;;;;;;3.50;3.40;;;;;;;8.63;100.00;100355.78;6053453;23;20104;-72
2023/12/29 09:10:29;;;;;;;3.78;3.40;;;;;;;8.82;100.00;100387.09;6050651;23;20038;-72
2023/12/29 09:12:59;;;;;;;4.32;4.13;;;;;;;8.49;100.00;100322.47;6060042;23;20377;-72
2023/12/29 09:15:25;;;;;;;3.70;3.50;;;;;;;8.68;100.00;100364.25;6060863;23;20256;-72
2023/12/29 09:17:52;;;;;;;4.03;3.83;;;;;;;8.89;100.00;100391.13;6017955;23;20014;-70
2023/12/29 09:20:18;;;;;;;3.40;3.30;;;;;;;8.93;100.00;100384.81;6052131;23;20089;-71
2023/12/29 09:22:45;;;;;;;4.97;4.78;;;;;;;8.42;100.00;100300.16;6048991;23;20025;-71
2023/12/29 09:25:11;;;;;;;3.42;3.33;;;;;;;8.14;100.00;100244.84;6051718;23;20446;-73
2023/12/29 09:27:38;;;;;;;3.90;3.70;;;;;;;8.94;100.00;100365.53;6055264;23;20034;-74
2023/12/29 09:30:05;;;;;;;3.50;3.38;;;;;;;9.13;100.00;100371.53;6040574;23;20030;-72
2023/12/29 09:32:32;;;;;;;12.48;3.85;;;;;;;8.99;100.00;100353.09;6061912;23;20018;-71
2023/12/29 09:34:58;;;;;;;3.83;3.63;;;;;;;9.16;100.00;100374.03;6061371;23;20016;-74
2023/12/29 09:37:25;;;;;;;4.18;3.97;;;;;;;8.58;100.00;100273.16;6059288;23;20029;-72
2023/12/29 09:39:51;;;;;;;3.75;3.65;;;;;;;9.07;100.00;100366.63;6038647;23;20089;-73
2023/12/29 09:42:24;;;;;;;3.47;3.38;;;;;;;7.98;100.00;100174.19;6051069;23;20026;-72
2023/12/29 09:44:51;;;;;;;;;;;;;;;9.33;100.00;100377.53;6047809;23;20077;-73
2023/12/29 09:47:28;;;;;;;4.28;3.47;;;;;;;9.33;100.00;100365.28;6042108;23;19914;-71
2023/12/29 09:49:55;;;;;;;8.93;3.83;;;;;;;8.75;100.00;100277.53;6055197;23;20014;-73
2023/12/29 09:52:23;;;;;;;7.43;5.18;;;;;;;9.28;100.00;100359.44;6050236;23;20039;-74
2023/12/29 09:54:52;;;;;;;5.70;5.40;;;;;;;8.47;100.00;100236.25;6047062;23;20002;-72
2023/12/29 09:57:19;;;;;;;3.65;3.45;;;;;;;9.48;100.00;100370.63;6061359;23;20110;-72
2023/12/29 09:59:49;;;;;;;4.30;4.07;;;;;;;8.76;100.00;100213.81;6025316;23;20042;-72
2023/12/29 10:02:15;;;;;;;4.32;4.00;;;;;;;9.44;100.00;100294.00;6035236;23;20015;-72
2023/12/29 10:04:42;;;;;;;5.03;4.78;;;;;;;9.90;100.00;100332.56;6022319;23;20050;-71
2023/12/29 10:07:13;;;;;;;5.03;3.75;;;;;;;9.55;100.00;100262.81;6031120;23;20027;-74
2023/12/29 10:09:44;;;;;;;5.10;3.90;;;;;;;9.33;100.00;100239.56;6037798;23;20043;-70
2023/12/29 10:12:12;;;;;;;5.30;4.35;;;;;;;9.25;100.00;100226.06;6037564;23;20073;-72
2023/12/29 10:15:12;;;;;;;5.57;4.35;;;;;;;9.85;100.00;100311.00;6055460;23;20030;-71
2023/12/29 10:17:57;;;;;;;4.50;4.18;;;;;;;9.89;100.00;100338.75;6038001;23;20046;-73
2023/12/29 10:20:50;;;;;;;4.43;4.13;;;;;;;9.92;100.00;100305.34;6046791;23;20240;-73
2023/12/29 10:23:33;;;;;;;3.70;3.50;;;;;;;10.19;100.00;100309.97;6064835;23;20083;-74
2023/12/29 10:25:59;;;;;;;;;;;;;;;10.31;100.00;100301.41;6055105;23;20052;-72
2023/12/29 10:28:26;;;;;;;5.53;3.75;;;;;;;10.03;100.00;100214.78;6055431;23;20394;-72
2023/12/29 10:30:52;;;;;;;5.20;5.00;;;;;;;10.36;100.00;100243.44;6035046;23;20047;-73
2023/12/29 10:33:24;;;;;;;3.80;3.70;;;;;;;10.38;100.00;100215.34;6048519;23;20092;-71
2023/12/29 10:36:02;;;;;;;3.80;3.70;;;;;;;10.36;100.00;100191.84;6008556;23;20011;-72
2023/12/29 10:38:30;;;;;;;5.88;4.72;;;;;;;10.38;100.00;100171.63;6045018;23;20051;-72
2023/12/29 10:41:16;;;;;;;5.35;4.88;;;;;;;10.47;100.00;100156.25;6042036;23;20014;-71
2023/12/29 10:43:47;;;;;;;4.53;4.05;;;;;;;10.15;100.00;100104.75;6048288;23;20382;-72
2023/12/29 10:46:13;;;;;;;4.00;3.80;;;;;;;10.18;100.00;100088.84;6045497;23;20023;-71
2023/12/29 10:48:40;;;;;;;4.05;3.85;;;;;;;10.36;100.00;100110.53;6033392;23;20030;-74
2023/12/29 10:51:06;;;;;;;3.60;3.50;;;;;;;10.80;100.00;100126.25;6050481;23;20030;-72
2023/12/29 10:53:34;;;;;;;3.90;3.70;;;;;;;10.90;100.00;100096.69;6042913;23;20026;-73
2023/12/29 10:56:19;;;;;;;3.70;3.60;;;;;;;11.06;100.00;100083.44;6044949;23;20251;-71
2023/12/29 10:58:57;;;;;;;5.22;5.03;;;;;;;10.92;100.00;100012.59;6021623;23;20030;-71
2023/12/29 11:01:25;;;;;;;3.83;3.70;;;;;;;10.86;100.00;99934.25;6058123;23;20085;-72
2023/12/29 11:04:03;;;;;;;4.30;4.10;;;;;;;11.25;100.00;99985.91;6030735;23;20457;-71
2023/12/29 11:06:40;;;;;;;3.80;3.60;;;;;;;10.27;100.00;99774.53;6055280;23;20022;-71
2023/12/29 11:09:06;;;;;;;3.90;3.70;;;;;;;11.17;100.00;99933.06;6011909;23;20033;-71
2023/12/29 11:11:35;;;;;;;4.00;3.80;;;;;;;11.36;100.00;99951.88;6056553;23;20050;-72
2023/12/29 11:14:03;;;;;;;3.90;3.70;;;;;;;11.32;100.00;99953.03;6052475;23;20295;-72
2023/12/29 11:16:31;;;;;;;4.05;3.85;;;;;;;11.43;100.00;99952.31;6046585;23;20474;-72
2023/12/29 11:18:58;;;;;;;4.50;4.30;;;;;;;11.34;100.00;99924.03;6047800;23;20298;-72
2023/12/29 11:21:30;;;;;;;4.10;3.90;;;;;;;11.38;100.00;99943.91;6035842;23;20019;-73
2023/12/29 11:23:56;;;;;;;4.13;3.92;;;;;;;10.81;100.00;99837.44;6028430;23;20474;-72
2023/12/29 11:26:28;;;;;;;3.90;3.70;;;;;;;10.94;100.00;99848.81;6049449;23;20020;-72
2023/12/29 11:28:55;;;;;;;4.83;4.63;;;;;;;11.16;100.00;99892.84;6022934;23;20011;-72
2023/12/29 11:31:21;;;;;;;4.20;4.00;;;;;;;11.12;100.00;99901.84;6043963;23;20050;-72